»·PEaware :: N379BN KLAX-KSAN

N379BN :: KLAX-KSAN

FLIGHT INFORMATION

Flight Status: Arrived
Operator: Privately registered:
United States
More flights under this callsign
Pilot: Brian N. (26816)
Aircraft: Unknown
(DA62)
More flights by this aircraft type
Origin: KLAX Los Angeles Intl
United States
Destination: KSAN San Diego Intl-Lindbergh
United States
More flights between these airports :: More routes between these airports
Route: OCN MZB
File this flight plan on PilotEdge
Remarks: Cat 11
Altitude:
(Current/Filed)
5,500ft
Speed:
(Current/Filed)
170kts
Departed: 05-Nov-19 01:05 PM
Arrived: 05-Nov-19 01:47 PM
Distance/Time
Traveled:
95nm/0:42
Distance/Time
To Go:
Arrived

Flight Plot

Page will automatically refresh every two minutes.

Flight plan parsing failed; only flown route is shown


Map Options




Map Legend


Flown Route
Filed Route
Departure Airport
Arrival Airport
Navaid (VOR, NDB)
Fix

Horizontal Profiles

Position Reports

Time Latitude Longitude Heading Altitude Ground
Speed
05-Nov-19 12:33 33.933327 -118.397095 279 130ft 0kts
05-Nov-19 12:34 33.933327 -118.397095 279 130ft 0kts
05-Nov-19 12:34 33.933327 -118.397095 279 130ft 0kts
05-Nov-19 12:36 33.933327 -118.397095 279 130ft 0kts
05-Nov-19 12:37 33.933327 -118.397095 279 130ft 0kts
05-Nov-19 12:37 33.933327 -118.397095 279 130ft 0kts
05-Nov-19 12:39 33.933327 -118.397095 279 130ft 0kts
05-Nov-19 12:39 33.933327 -118.397095 279 130ft 0kts
05-Nov-19 12:40 33.933327 -118.397095 279 130ft 0kts
05-Nov-19 12:42 33.933327 -118.397095 279 130ft 0kts
05-Nov-19 12:42 33.933327 -118.397095 279 130ft 0kts
05-Nov-19 12:43 33.933327 -118.397095 279 130ft 0kts
05-Nov-19 12:52 33.933630 -118.399843 173 130ft 0kts
05-Nov-19 12:53 33.933630 -118.399843 173 130ft 0kts
05-Nov-19 12:54 33.933630 -118.399843 173 130ft 0kts
05-Nov-19 12:55 33.933630 -118.399843 173 130ft 0kts
05-Nov-19 12:56 33.933630 -118.399843 173 130ft 0kts
05-Nov-19 12:57 33.933630 -118.399843 173 130ft 0kts
05-Nov-19 12:58 33.933630 -118.399843 173 130ft 0kts
05-Nov-19 12:59 33.934595 -118.397734 88 130ft 14kts
05-Nov-19 13:00 33.935761 -118.386677 83 130ft 34kts
05-Nov-19 13:01 33.936382 -118.383016 20 130ft 0kts
05-Nov-19 13:02 33.936382 -118.383016 20 130ft 0kts
05-Nov-19 13:03 33.937242 -118.384599 261 130ft 38kts
05-Nov-19 13:04 33.934418 -118.410603 261 425ft 89kts
05-Nov-19 13:05 33.932269 -118.440536 266 1131ft 92kts
05-Nov-19 13:06 33.930083 -118.472085 266 1834ft 100kts
05-Nov-19 13:07 33.920685 -118.502257 186 2544ft 108kts
05-Nov-19 13:08 33.903546 -118.473932 107 3442ft 122kts
05-Nov-19 13:09 33.891738 -118.431954 107 4288ft 143kts
05-Nov-19 13:10 33.873630 -118.387915 127 4972ft 159kts
05-Nov-19 13:11 33.849001 -118.351264 127 4987ft 184kts
05-Nov-19 13:12 33.817315 -118.299976 122 5000ft 191kts
05-Nov-19 13:13 33.790526 -118.245696 113 5000ft 188kts
05-Nov-19 13:14 33.770852 -118.188680 106 4996ft 188kts
05-Nov-19 13:15 33.748924 -118.132487 127 5228ft 184kts
05-Nov-19 13:16 33.721415 -118.093217 128 5500ft 181kts
05-Nov-19 13:17 33.688987 -118.047245 129 5501ft 182kts
05-Nov-19 13:18 33.655996 -118.000529 128 5502ft 184kts
05-Nov-19 13:19 33.623065 -117.953941 129 5500ft 183kts
05-Nov-19 13:20 33.590141 -117.907492 129 5500ft 182kts
05-Nov-19 13:21 33.557154 -117.860987 129 5503ft 182kts
05-Nov-19 13:22 33.524117 -117.814459 129 5504ft 183kts
05-Nov-19 13:23 33.491045 -117.767945 128 5504ft 183kts
05-Nov-19 13:24 33.475811 -117.746540 129 5504ft 183kts
05-Nov-19 13:25 33.442738 -117.700098 129 5502ft 183kts
05-Nov-19 13:26 33.409511 -117.653469 129 5504ft 183kts
05-Nov-19 13:27 33.376323 -117.607015 128 5504ft 184kts
05-Nov-19 13:28 33.343034 -117.560494 128 5504ft 184kts
05-Nov-19 13:29 33.309996 -117.514334 129 5504ft 184kts
05-Nov-19 13:30 33.276753 -117.467924 128 5504ft 184kts
05-Nov-19 13:31 33.242809 -117.420980 134 5220ft 193kts
05-Nov-19 13:32 33.195788 -117.398807 158 4215ft 168kts
05-Nov-19 13:33 33.154919 -117.381558 158 3495ft 149kts
05-Nov-19 13:34 33.111794 -117.363440 158 3505ft 173kts
05-Nov-19 13:35 33.066100 -117.344259 159 3506ft 176kts
05-Nov-19 13:36 33.019743 -117.324796 159 3507ft 176kts
05-Nov-19 13:37 32.980178 -117.308200 158 3508ft 178kts
05-Nov-19 13:38 32.935716 -117.289589 159 2704ft 157kts
05-Nov-19 13:39 32.896965 -117.273360 159 2690ft 136kts
05-Nov-19 13:40 32.863301 -117.259288 158 3222ft 133kts
05-Nov-19 13:41 32.825230 -117.243347 159 3210ft 169kts
05-Nov-19 13:42 32.783337 -117.224204 148 2946ft 156kts
05-Nov-19 13:43 32.758754 -117.185323 111 2293ft 142kts
05-Nov-19 13:44 32.736709 -117.155169 196 845ft 120kts
05-Nov-19 13:45 32.732040 -117.183399 286 24ft 79kts
05-Nov-19 13:46 32.734778 -117.190353 81 18ft 6kts
05-Nov-19 13:47 32.733415 -117.184329 105 18ft 29kts
05-Nov-19 13:48 32.733302 -117.179611 13 18ft 5kts
05-Nov-19 13:49 32.733599 -117.179116 16 18ft 0kts

Navigation Log

Ident Type
Flight plan parsing failed, navigation log unavailable